createdAt,value
2018-12-27T00:02:21.087Z,102445.47
2018-12-27T00:04:49.448Z,102445.05
2018-12-27T00:07:17.197Z,102443.25
2018-12-27T00:09:45.406Z,102436.52
2018-12-27T00:12:13.513Z,102431.59
2018-12-27T00:14:41.243Z,102426.68
2018-12-27T00:17:08.955Z,102441.48
2018-12-27T00:19:36.687Z,102429.38
2018-12-27T00:22:04.416Z,102439.24
2018-12-27T00:24:32.139Z,102432.52
2018-12-27T00:26:59.942Z,102423.51
2018-12-27T00:29:27.676Z,102429.82
2018-12-27T00:31:55.560Z,102422.19
2018-12-27T00:34:23.530Z,102414.56
2018-12-27T00:36:51.439Z,102421.30
2018-12-27T00:39:20.671Z,102416.36
2018-12-27T00:41:48.615Z,102425.78
2018-12-27T00:44:16.804Z,102423.51
2018-12-27T00:46:44.678Z,102415.91
2018-12-27T00:49:12.578Z,102419.95
2018-12-27T00:51:40.504Z,102419.47
2018-12-27T00:54:08.430Z,102410.05
2018-12-27T00:56:36.383Z,102408.28
2018-12-27T00:59:04.319Z,102415.02
2018-12-27T01:01:32.277Z,102410.08
2018-12-27T01:04:00.147Z,102406.48
2018-12-27T01:06:28.087Z,102411.89
2018-12-27T01:08:56.038Z,102411.89
2018-12-27T01:11:24.090Z,102421.77
2018-12-27T01:13:52.162Z,102409.65
2018-12-27T01:16:20.039Z,102404.27
2018-12-27T01:18:47.916Z,102405.61
2018-12-27T01:21:15.850Z,102409.20
2018-12-27T01:23:43.850Z,102402.05
2018-12-27T01:26:11.715Z,102403.81
2018-12-27T01:28:39.622Z,102404.27
2018-12-27T01:31:07.515Z,102402.00
2018-12-27T01:33:35.417Z,102401.10
2018-12-27T01:36:03.329Z,102391.68
2018-12-27T01:38:31.210Z,102389.88
2018-12-27T01:40:59.120Z,102393.45
2018-12-27T01:43:28.401Z,102389.86
2018-12-27T01:45:56.283Z,102388.51
2018-12-27T01:48:24.156Z,102382.67
2018-12-27T01:50:52.083Z,102385.34
2018-12-27T01:53:19.984Z,102378.64
2018-12-27T01:55:47.956Z,102377.33
2018-12-27T01:58:15.860Z,102373.70
2018-12-27T02:00:43.741Z,102367.00
2018-12-27T02:03:11.693Z,102369.23
2018-12-27T02:05:39.642Z,102363.41
2018-12-27T02:08:07.561Z,102360.75
2018-12-27T02:17:07.244Z,102351.74
2018-12-27T02:19:35.218Z,102353.53
2018-12-27T02:22:03.183Z,102362.06
2018-12-27T02:24:31.093Z,102354.44
2018-12-27T02:26:59.132Z,102359.37
2018-12-27T02:29:27.111Z,102353.98
2018-12-27T02:31:55.021Z,102353.98
2018-12-27T02:34:22.920Z,102353.55
2018-12-27T02:36:50.895Z,102352.20
2018-12-27T02:39:18.904Z,102349.47
2018-12-27T02:41:46.942Z,102345.02
2018-12-27T02:44:15.400Z,102346.36
2018-12-27T02:46:43.377Z,102340.98
2018-12-27T02:49:11.343Z,102344.06
2018-12-27T02:51:39.232Z,102337.81
2018-12-27T02:54:07.171Z,102338.70
2018-12-27T02:56:35.058Z,102335.59
2018-12-27T02:59:02.956Z,102327.06
2018-12-27T03:01:30.850Z,102333.80
2018-12-27T03:03:59.066Z,102319.88
2018-12-27T03:06:27.234Z,102323.48
2018-12-27T03:08:55.121Z,102320.78
2018-12-27T03:11:23.181Z,102320.81
2018-12-27T03:13:51.191Z,102320.81
2018-12-27T03:16:19.083Z,102318.57
2018-12-27T03:18:46.959Z,102327.09
2018-12-27T03:21:14.916Z,102325.27
2018-12-27T03:23:42.835Z,102322.55
2018-12-27T03:26:10.855Z,102318.52
2018-12-27T03:28:39.082Z,102310.86
2018-12-27T03:31:06.959Z,102311.75
2018-12-27T03:33:35.097Z,102311.30
2018-12-27T03:36:02.982Z,102317.14
2018-12-27T03:38:30.940Z,102317.14
2018-12-27T03:40:59.305Z,102309.48
2018-12-27T03:43:27.233Z,102307.66
2018-12-27T03:45:55.419Z,102306.76
2018-12-27T03:48:23.322Z,102298.69
2018-12-27T03:50:51.315Z,102298.69
2018-12-27T03:53:19.218Z,102304.55
2018-12-27T03:55:47.175Z,102302.19
2018-12-27T03:58:15.078Z,102297.30
2018-12-27T04:00:42.955Z,102301.37
2018-12-27T04:03:10.845Z,102293.33
2018-12-27T04:05:38.784Z,102291.11
2018-12-27T04:08:06.686Z,102289.31
2018-12-27T04:10:34.661Z,102294.70
2018-12-27T04:13:02.570Z,102291.56
2018-12-27T04:15:30.439Z,102287.11
2018-12-27T04:17:58.459Z,102280.41
2018-12-27T04:20:26.232Z,102281.30
2018-12-27T04:22:54.498Z,102278.61
2018-12-27T04:25:22.235Z,102280.85
2018-12-27T04:27:49.967Z,102275.05
2018-12-27T04:30:17.735Z,102277.74
2018-12-27T04:32:45.508Z,102273.26
2018-12-27T04:35:13.235Z,102272.77
2018-12-27T04:37:40.975Z,102268.77
2018-12-27T04:40:11.803Z,102269.22
2018-12-27T04:42:39.606Z,102268.80
2018-12-27T04:45:07.322Z,102270.59
2018-12-27T04:47:35.059Z,102271.94
2018-12-27T04:50:02.923Z,102271.94
2018-12-27T04:52:30.796Z,102268.33
2018-12-27T04:54:58.512Z,102273.20
2018-12-27T04:57:26.568Z,102267.36
2018-12-27T04:59:54.388Z,102270.92
2018-12-27T05:02:22.091Z,102267.75
2018-12-27T05:04:49.912Z,102260.98
2018-12-27T05:07:17.660Z,102265.02
2018-12-27T05:09:45.441Z,102267.75
2018-12-27T05:12:13.174Z,102263.27
2018-12-27T05:14:40.880Z,102268.20
2018-12-27T05:17:08.863Z,102264.61
2018-12-27T05:19:36.679Z,102256.53
2018-12-27T05:22:04.482Z,102259.22
2018-12-27T05:24:32.325Z,102259.67
2018-12-27T05:27:00.063Z,102263.74
2018-12-27T05:29:27.783Z,102261.05
2018-12-27T05:31:55.627Z,102262.39
2018-12-27T05:34:26.271Z,102268.67
2018-12-27T05:36:53.072Z,102249.53
2018-12-27T05:39:20.834Z,102267.36
2018-12-27T05:41:48.787Z,102272.30
2018-12-27T05:44:16.530Z,102276.34
2018-12-27T05:46:44.246Z,102271.85
2018-12-27T05:49:12.044Z,102281.72
2018-12-27T05:51:39.759Z,102287.14
2018-12-27T05:54:07.476Z,102283.52
2018-12-27T05:56:35.182Z,102280.85
2018-12-27T05:59:02.909Z,102283.99
2018-12-27T06:01:30.707Z,102286.72
2018-12-27T06:03:58.430Z,102283.12
2018-12-27T06:06:26.187Z,102279.09
2018-12-27T06:08:53.903Z,102284.45
2018-12-27T06:11:21.703Z,102275.89
2018-12-27T06:13:50.046Z,102275.44
2018-12-27T06:16:17.975Z,102277.20
2018-12-27T06:18:45.675Z,102281.69
2018-12-27T06:21:14.012Z,102281.21
2018-12-27T06:23:41.752Z,102279.86
2018-12-27T06:26:09.635Z,102283.87
2018-12-27T06:28:37.427Z,102283.69
2018-12-27T06:31:05.158Z,102282.81
2018-12-27T06:33:32.933Z,102289.52
2018-12-27T06:36:00.687Z,102288.78
2018-12-27T06:38:28.460Z,102291.52
2018-12-27T06:40:56.174Z,102286.81
2018-12-27T06:43:23.985Z,102290.50
2018-12-27T06:45:51.931Z,102290.80
2018-12-27T06:48:19.712Z,102285.36
2018-12-27T06:50:47.409Z,102289.48
2018-12-27T06:53:15.144Z,102287.41
2018-12-27T06:55:43.196Z,102278.50
2018-12-27T06:58:10.926Z,102279.42
2018-12-27T07:00:38.643Z,102282.13
2018-12-27T07:03:06.355Z,102278.58
2018-12-27T07:05:34.186Z,102272.34
2018-12-27T07:08:02.026Z,102267.92
2018-12-27T07:10:29.829Z,102266.61
2018-12-27T07:12:57.847Z,102259.47
2018-12-27T07:15:25.642Z,102257.71
2018-12-27T07:17:53.383Z,102260.01
2018-12-27T07:20:21.108Z,102248.36
2018-12-27T07:22:49.023Z,102253.34
2018-12-27T07:25:16.883Z,102254.64
2018-12-27T07:27:44.615Z,102255.09
2018-12-27T07:30:12.337Z,102251.11
2018-12-27T07:32:40.248Z,102250.20
2018-12-27T07:35:08.020Z,102251.11
2018-12-27T07:37:35.735Z,102249.83
2018-12-27T07:40:04.155Z,102246.54
2018-12-27T07:42:31.914Z,102249.93
2018-12-27T07:44:59.636Z,102249.23
2018-12-27T07:47:27.358Z,102253.13
2018-12-27T07:49:55.161Z,102250.81
2018-12-27T07:52:25.572Z,102253.42
2018-12-27T07:54:52.803Z,102249.36
2018-12-27T07:57:20.535Z,102249.36
2018-12-27T07:59:48.276Z,102244.88
2018-12-27T08:02:15.982Z,102242.16
2018-12-27T08:04:43.719Z,102239.89
2018-12-27T08:07:11.478Z,102234.06
2018-12-27T08:09:39.327Z,102242.11
2018-12-27T08:12:07.036Z,102242.53
2018-12-27T08:14:34.796Z,102243.43
2018-12-27T08:17:02.772Z,102237.56
2018-12-27T08:19:30.607Z,102239.36
2018-12-27T08:21:58.362Z,102243.81
2018-12-27T08:24:26.096Z,102242.89
2018-12-27T08:26:53.843Z,102234.82
2018-12-27T08:29:21.910Z,102236.14
2018-12-27T08:31:49.733Z,102241.04
2018-12-27T08:34:17.534Z,102237.93
2018-12-27T08:36:45.279Z,102240.17
2018-12-27T08:39:12.975Z,102237.48
2018-12-27T08:41:41.968Z,102233.86
2018-12-27T08:44:09.675Z,102239.73
2018-12-27T08:46:37.407Z,102244.66
2018-12-27T08:49:05.109Z,102240.17
2018-12-27T08:51:33.241Z,102233.00
2018-12-27T08:54:01.030Z,102234.31
2018-12-27T08:56:28.773Z,102241.05
2018-12-27T08:58:56.573Z,102242.39
2018-12-27T09:01:24.359Z,102246.01
2018-12-27T09:03:52.119Z,102250.05
2018-12-27T09:06:19.975Z,102249.15
2018-12-27T09:08:47.708Z,102251.39
2018-12-27T09:11:15.616Z,102248.25
2018-12-27T09:13:43.434Z,102245.56
2018-12-27T09:16:11.158Z,102246.01
2018-12-27T09:18:38.887Z,102240.17
2018-12-27T09:21:06.675Z,102243.84
2018-12-27T09:23:34.406Z,102245.73
2018-12-27T09:26:02.174Z,102241.21
2018-12-27T09:28:29.884Z,102237.13
2018-12-27T09:30:57.695Z,102235.75
2018-12-27T09:33:25.425Z,102217.48
2018-12-27T09:35:53.225Z,102246.03
2018-12-27T09:38:20.944Z,102250.09
2018-12-27T09:40:48.812Z,102239.81
2018-12-27T09:43:16.551Z,102239.81
2018-12-27T09:45:44.346Z,102243.81
2018-12-27T09:48:12.089Z,102237.13
2018-12-27T09:50:39.914Z,102234.84
2018-12-27T09:53:07.778Z,102224.98
2018-12-27T09:55:37.271Z,102229.02
2018-12-27T09:58:05.403Z,102231.27
2018-12-27T10:00:33.915Z,102230.36
2018-12-27T10:03:01.731Z,102234.40
2018-12-27T10:05:41.629Z,102235.75
2018-12-27T10:08:11.104Z,102231.27
2018-12-27T10:10:39.482Z,102237.98
2018-12-27T10:13:10.494Z,102240.68
2018-12-27T10:15:38.204Z,102251.48
2018-12-27T10:18:06.104Z,102234.42
2018-12-27T10:20:34.164Z,102235.80
2018-12-27T10:23:02.152Z,102235.80
2018-12-27T10:25:29.868Z,102235.80
2018-12-27T10:27:57.646Z,102240.27
2018-12-27T10:30:25.422Z,102243.84
2018-12-27T10:32:53.147Z,102232.63
2018-12-27T10:35:21.438Z,102234.40
2018-12-27T10:37:49.208Z,102231.29
2018-12-27T10:40:16.939Z,102214.81
2018-12-27T10:42:44.711Z,102231.71
2018-12-27T10:45:13.688Z,102232.12
2018-12-27T10:47:41.386Z,102229.44
2018-12-27T10:50:09.418Z,102237.52
2018-12-27T10:52:37.470Z,102213.41
2018-12-27T10:55:05.388Z,102225.41
2018-12-27T10:57:34.862Z,102224.05
2018-12-27T11:00:02.759Z,102227.64
2018-12-27T11:02:30.480Z,102221.81
2018-12-27T11:04:58.194Z,102220.92
2018-12-27T11:07:25.964Z,102219.09
2018-12-27T11:09:53.782Z,102218.16
2018-12-27T11:12:21.788Z,102220.85
2018-12-27T11:14:49.574Z,102213.67
2018-12-27T11:17:17.280Z,102219.99
2018-12-27T11:19:44.994Z,102212.78
2018-12-27T11:22:12.764Z,102210.57
2018-12-27T11:24:40.479Z,102214.58
2018-12-27T11:27:09.490Z,102219.03
2018-12-27T11:29:37.343Z,102217.72
2018-12-27T11:32:05.163Z,102207.88
2018-12-27T11:34:32.988Z,102206.09
2018-12-27T11:37:00.747Z,102201.56
2018-12-27T11:39:29.613Z,102201.15
2018-12-27T11:41:57.331Z,102202.91
2018-12-27T11:44:25.147Z,102197.56
2018-12-27T11:46:52.894Z,102200.25
2018-12-27T11:49:20.707Z,102200.25
2018-12-27T11:51:48.430Z,102191.73
2018-12-27T11:54:16.154Z,102190.41
2018-12-27T11:56:43.890Z,102197.59
2018-12-27T11:59:11.594Z,102189.52
2018-12-27T12:01:39.331Z,102194.00
2018-12-27T12:04:07.070Z,102180.06
2018-12-27T12:06:36.636Z,102188.63
2018-12-27T12:09:06.103Z,102184.59
2018-12-27T12:11:34.119Z,102182.79
2018-12-27T12:14:01.919Z,102184.14
2018-12-27T12:16:29.627Z,102181.44
2018-12-27T12:18:57.331Z,102176.96
2018-12-27T12:21:25.075Z,102177.44
2018-12-27T12:23:52.866Z,102176.55
2018-12-27T12:26:20.590Z,102181.44
2018-12-27T12:28:48.321Z,102182.37
2018-12-27T12:31:16.051Z,102182.79
2018-12-27T12:33:43.772Z,102179.23
2018-12-27T12:36:11.774Z,102184.62
2018-12-27T12:38:39.527Z,102177.89
2018-12-27T12:41:08.578Z,102180.58
2018-12-27T12:43:38.000Z,102174.75
2018-12-27T12:46:05.711Z,102176.09
2018-12-27T12:48:33.433Z,102174.75
2018-12-27T12:51:01.151Z,102177.44
2018-12-27T12:53:28.842Z,102179.23
2018-12-27T12:55:56.563Z,102179.23
2018-12-27T12:58:24.283Z,102181.03
2018-12-27T13:00:51.990Z,102185.96
2018-12-27T13:03:19.959Z,102181.95
2018-12-27T13:05:47.684Z,102178.34
2018-12-27T13:08:15.390Z,102176.58
2018-12-27T13:10:43.111Z,102174.30
2018-12-27T13:13:10.861Z,102171.20
2018-12-27T13:15:38.611Z,102171.20
2018-12-27T13:18:06.322Z,102171.61
2018-12-27T13:20:34.288Z,102173.88
2018-12-27T13:23:02.234Z,102172.09
2018-12-27T13:25:30.015Z,102177.47
2018-12-27T13:27:57.759Z,102161.77
2018-12-27T13:30:25.507Z,102159.98
2018-12-27T13:32:53.254Z,102166.70
2018-12-27T13:35:20.949Z,102164.47
2018-12-27T13:37:48.662Z,102165.33
2018-12-27T13:40:16.392Z,102168.92
2018-12-27T13:42:44.166Z,102165.81
2018-12-27T13:45:11.882Z,102164.47
2018-12-27T13:47:39.603Z,102157.29
2018-12-27T13:50:07.358Z,102160.43
2018-12-27T13:52:35.116Z,102156.84
2018-12-27T13:55:02.835Z,102156.84
2018-12-27T13:57:30.591Z,102152.36
2018-12-27T13:59:58.321Z,102151.91
2018-12-27T14:02:26.042Z,102144.70
2018-12-27T14:04:56.121Z,102134.42
2018-12-27T14:07:23.908Z,102139.80
2018-12-27T14:09:51.638Z,102138.91
2018-12-27T14:12:19.360Z,102142.94
2018-12-27T14:14:50.100Z,102134.87
2018-12-27T14:17:17.822Z,102128.72
2018-12-27T14:19:45.532Z,102148.73
2018-12-27T14:22:13.254Z,102149.67
2018-12-27T14:24:41.032Z,102144.73
2018-12-27T14:27:08.794Z,102151.02
2018-12-27T14:29:36.806Z,102152.80
2018-12-27T14:32:04.534Z,102155.05
2018-12-27T14:34:32.555Z,102154.15
2018-12-27T14:37:00.284Z,102151.45
2018-12-27T14:39:28.119Z,102155.08
2018-12-27T14:41:55.902Z,102155.08
2018-12-27T14:44:23.635Z,102159.56
2018-12-27T14:46:51.356Z,102159.12
2018-12-27T14:49:19.167Z,102155.08
2018-12-27T14:51:46.881Z,102157.77
2018-12-27T14:54:14.610Z,102157.77
2018-12-27T14:56:42.315Z,102158.22
2018-12-27T14:59:10.155Z,102113.22
2018-12-27T15:05:00.176Z,102161.80
2018-12-27T15:07:27.929Z,102160.02
2018-12-27T15:09:55.686Z,102158.67
2018-12-27T15:12:23.404Z,102155.98
2018-12-27T15:14:51.175Z,102154.63
2018-12-27T15:17:18.903Z,102157.77
2018-12-27T15:19:46.741Z,102161.36
2018-12-27T15:22:14.434Z,102160.88
2018-12-27T15:24:42.287Z,102151.05
2018-12-27T15:27:10.039Z,102152.39
2018-12-27T15:29:38.038Z,102158.67
2018-12-27T15:32:05.839Z,102155.53
2018-12-27T15:34:33.574Z,102156.42
2018-12-27T15:37:01.270Z,102158.67
2018-12-27T15:39:28.984Z,102164.05
2018-12-27T15:41:56.728Z,102155.05
2018-12-27T15:44:24.455Z,102155.50
2018-12-27T15:46:52.239Z,102161.33
2018-12-27T15:49:19.966Z,102159.98
2018-12-27T15:51:47.691Z,102163.13
2018-12-27T15:54:16.094Z,102166.70
2018-12-27T15:56:43.810Z,102161.77
2018-12-27T15:59:11.576Z,102157.73
2018-12-27T16:01:39.302Z,102158.19
2018-12-27T16:04:07.026Z,102159.98
2018-12-27T16:06:34.870Z,102155.95
2018-12-27T16:09:04.348Z,102160.42
2018-12-27T16:11:32.047Z,102152.80
2018-12-27T16:13:59.777Z,102157.73
2018-12-27T16:16:27.582Z,102157.29
2018-12-27T16:18:55.356Z,102153.70
2018-12-27T16:21:23.378Z,102151.45
2018-12-27T16:23:51.083Z,102152.39
2018-12-27T16:26:18.829Z,102149.25
2018-12-27T16:28:46.559Z,102147.01
2018-12-27T16:31:14.390Z,102147.91
2018-12-27T16:33:42.103Z,102147.01
2018-12-27T16:36:09.892Z,102157.33
2018-12-27T16:38:37.615Z,102154.63
2018-12-27T16:41:05.613Z,102147.91
2018-12-27T16:43:33.355Z,102152.84
2018-12-27T16:46:01.078Z,102154.19
2018-12-27T16:48:28.811Z,102153.73
2018-12-27T16:50:56.595Z,102147.91
2018-12-27T16:53:24.321Z,102148.35
2018-12-27T16:55:52.099Z,102126.51
2018-12-27T16:58:19.822Z,102147.91
2018-12-27T17:00:47.986Z,102154.63
2018-12-27T17:03:15.727Z,102150.59
2018-12-27T17:05:43.503Z,102148.35
2018-12-27T17:08:11.306Z,102155.98
2018-12-27T17:10:39.332Z,102147.91
2018-12-27T17:13:07.228Z,102142.55
2018-12-27T17:15:35.019Z,102145.25
2018-12-27T17:18:02.812Z,102144.80
2018-12-27T17:20:30.635Z,102142.52
2018-12-27T17:22:58.450Z,102139.41
2018-12-27T17:25:26.183Z,102134.45
2018-12-27T17:27:53.933Z,102144.80
2018-12-27T17:30:23.228Z,102139.83
2018-12-27T17:32:50.940Z,102135.37
2018-12-27T17:35:18.691Z,102138.94
2018-12-27T17:37:46.442Z,102147.49
2018-12-27T17:40:14.239Z,102147.94
2018-12-27T17:42:41.966Z,102142.52
2018-12-27T17:45:10.672Z,102139.41
2018-12-27T17:47:38.416Z,102130.45
2018-12-27T17:50:06.234Z,102134.48
2018-12-27T17:52:33.954Z,102135.37
2018-12-27T17:55:01.746Z,102140.77
2018-12-27T17:57:29.474Z,102138.97
2018-12-27T17:59:57.220Z,102142.11
2018-12-27T18:02:25.036Z,102148.83
2018-12-27T18:04:52.748Z,102150.59
2018-12-27T18:07:20.483Z,102143.45
2018-12-27T18:09:48.327Z,102150.62
2018-12-27T18:12:16.086Z,102156.45
2018-12-27T18:14:43.837Z,102159.14
2018-12-27T18:17:11.556Z,102155.14
2018-12-27T18:19:39.381Z,102156.48
2018-12-27T18:22:07.197Z,102156.48
2018-12-27T18:24:34.889Z,102147.55
2018-12-27T18:27:02.743Z,102156.52
2018-12-27T18:29:30.521Z,102149.34
2018-12-27T18:31:58.385Z,102160.11
2018-12-27T18:34:26.105Z,102163.70
2018-12-27T18:36:53.853Z,102166.35
2018-12-27T18:39:21.634Z,102153.34
2018-12-27T18:41:49.392Z,102161.42
2018-12-27T18:44:17.086Z,102161.45
2018-12-27T18:46:45.535Z,102160.55
2018-12-27T18:49:13.393Z,102167.28
2018-12-27T18:51:41.348Z,102164.56
2018-12-27T18:54:33.378Z,102162.77
2018-12-27T18:57:01.150Z,102162.31
2018-12-27T18:59:28.910Z,102163.66
2018-12-27T19:01:56.677Z,102157.39
2018-12-27T19:04:24.416Z,102165.91
2018-12-27T19:06:52.707Z,102171.73
2018-12-27T19:09:20.665Z,102172.63
2018-12-27T19:12:06.872Z,102170.84
2018-12-27T19:14:35.450Z,102175.33
2018-12-27T19:17:07.755Z,102169.48
2018-12-27T19:19:32.967Z,102173.98
2018-12-27T19:22:03.548Z,102177.11
2018-12-27T19:24:31.687Z,102178.91
2018-12-27T19:27:00.236Z,102181.16
2018-12-27T19:29:28.482Z,102181.16
2018-12-27T19:31:56.553Z,102178.94
2018-12-27T19:34:24.923Z,102184.74
2018-12-27T19:36:55.649Z,102179.36
2018-12-27T19:39:25.853Z,102183.84
2018-12-27T19:41:53.537Z,102185.64
2018-12-27T19:44:21.932Z,102181.60
2018-12-27T19:46:50.290Z,102182.50
2018-12-27T19:49:18.705Z,102186.53
2018-12-27T19:51:46.897Z,102189.22
2018-12-27T19:54:15.227Z,102185.19
2018-12-27T19:56:49.219Z,102186.53
2018-12-27T19:59:20.175Z,102185.19
2018-12-27T20:01:48.279Z,102187.88
2018-12-27T20:04:16.438Z,102189.67
2018-12-27T20:06:45.172Z,102182.94
2018-12-27T20:09:13.364Z,102183.84
2018-12-27T20:11:43.840Z,102179.36
2018-12-27T20:14:11.907Z,102176.22
2018-12-27T20:16:41.025Z,102172.19
2018-12-27T20:19:08.990Z,102181.16
2018-12-27T20:21:40.126Z,102187.88
2018-12-27T20:24:08.141Z,102179.36
2018-12-27T20:26:42.355Z,102181.18
2018-12-27T20:29:11.739Z,102162.47
2018-12-27T20:31:40.056Z,102179.84
2018-12-27T20:34:08.158Z,102180.70
2018-12-27T20:36:36.478Z,102177.14
2018-12-27T20:39:07.254Z,102167.73
2018-12-27T20:41:39.996Z,102173.11
2018-12-27T20:44:10.569Z,102161.87
2018-12-27T20:46:41.305Z,102165.94
2018-12-27T20:49:09.888Z,102162.80
2018-12-27T20:51:37.997Z,102167.73
2018-12-27T20:54:06.112Z,102166.83
2018-12-27T20:56:34.302Z,102158.76
2018-12-27T20:59:04.926Z,102158.34
2018-12-27T21:01:37.296Z,102148.48
2018-12-27T21:04:05.023Z,102148.00
2018-12-27T21:06:33.780Z,102143.42
2018-12-27T21:09:01.763Z,102141.98
2018-12-27T21:11:29.476Z,102146.42
2018-12-27T21:13:57.392Z,102144.15
2018-12-27T21:16:25.253Z,102139.22
2018-12-27T21:18:53.322Z,102136.97
2018-12-27T21:21:21.207Z,102142.32
2018-12-27T21:23:49.995Z,102142.70
2018-12-27T21:26:17.830Z,102139.03
2018-12-27T21:28:45.597Z,102130.06
2018-12-27T21:31:13.471Z,102136.76
2018-12-27T21:33:41.231Z,102143.00
2018-12-27T21:36:09.010Z,102131.30
2018-12-27T21:38:41.607Z,102128.16
2018-12-27T21:41:07.702Z,102133.06
2018-12-27T21:43:35.455Z,102139.34
2018-12-27T21:46:03.427Z,102142.44
2018-12-27T21:48:31.146Z,102143.67
2018-12-27T21:50:59.142Z,102142.00
2018-12-27T21:53:26.934Z,102141.06
2018-12-27T21:55:54.938Z,102141.91
2018-12-27T21:58:22.693Z,102147.64
2018-12-27T22:00:50.410Z,102150.41
2018-12-27T22:03:18.150Z,102162.04
2018-12-27T22:05:46.135Z,102154.56
2018-12-27T22:08:13.946Z,102151.16
2018-12-27T22:10:41.986Z,102149.81
2018-12-27T22:13:09.795Z,102156.13
2018-12-27T22:15:37.955Z,102157.50
2018-12-27T22:18:05.683Z,102154.84
2018-12-27T22:20:33.419Z,102147.67
2018-12-27T22:23:01.160Z,102143.94
2018-12-27T22:25:29.135Z,102149.25
2018-12-27T22:27:57.942Z,102145.66
2018-12-27T22:30:25.831Z,102146.97
2018-12-27T22:32:53.643Z,102151.49
2018-12-27T22:35:21.459Z,102142.93
2018-12-27T22:37:49.286Z,102143.48
2018-12-27T22:40:17.068Z,102125.58
2018-12-27T22:42:44.842Z,102126.44
2018-12-27T22:45:12.541Z,102134.06
2018-12-27T22:47:40.263Z,102130.92
2018-12-27T22:50:08.368Z,102113.09
2018-12-27T22:52:36.074Z,102130.96
2018-12-27T22:55:03.959Z,102129.13
2018-12-27T22:57:31.687Z,102134.52
2018-12-27T22:59:59.422Z,102130.92
2018-12-27T23:02:27.236Z,102123.75
2018-12-27T23:04:54.983Z,102127.75
2018-12-27T23:07:25.150Z,102109.09
2018-12-27T23:09:52.272Z,102129.58
2018-12-27T23:12:20.004Z,102125.58
2018-12-27T23:14:47.719Z,102123.75
2018-12-27T23:17:15.451Z,102129.09
2018-12-27T23:19:43.168Z,102127.30
2018-12-27T23:22:10.879Z,102128.69
2018-12-27T23:24:38.590Z,102125.54
2018-12-27T23:27:06.643Z,102113.54
2018-12-27T23:29:34.366Z,102123.27
2018-12-27T23:32:02.095Z,102128.20
2018-12-27T23:34:29.802Z,102120.57
2018-12-27T23:36:57.675Z,102115.22
2018-12-27T23:39:25.378Z,102108.04
2018-12-27T23:41:53.106Z,102104.45
2018-12-27T23:44:20.844Z,102115.22
2018-12-27T23:46:48.583Z,102112.48
2018-12-27T23:49:16.326Z,102105.76
2018-12-27T23:51:45.539Z,102101.27
2018-12-27T23:54:13.243Z,102092.30
2018-12-27T23:56:40.968Z,102103.48
2018-12-27T23:59:08.705Z,102103.03
